Aérodrome :
LOGIN :

S'inscrire | Disclaimer

   EN    FR    IT 

 










Légende :    VFR   VFR Marginal   IFR   IFR Intensif   IFR Très Intensif
Visi : 
Plafond : 
>= 8 km
>= 3000ft
5 à 8 km
1000 à 3000 ft
1500m à 5 km
500 à 1000 ft
800 à 1500m
200 à 500 ft
< 800m
< 200 ft
Symboles :   Orages  Brouillard  Fortes neiges  Fortes précipitations  Vent > 20 kt
SIGMETs :   Divers  Orages  Givrage  Turbulence  Onde Orograph.  Cendres Volcan.







- Altitude de l'aérodrome : 1079 ft


ETIK - Illesheim Air Base

DERNIER METAR :
  • 222356Z AUTO 00000KT 9999 CLR 10/10 A3032 RMK AO2 SLP264 T00990099 10217 20098 55000 $

METARs EXPIRÉS :
  • 222256Z AUTO 00000KT 9999 CLR 11/10 A3032 RMK AO2 SLPNO T01050097 402470065 $
  • 222156Z AUTO 00000KT 9999 CLR 12/10 A3032 RMK AO2 SLP264 T01170099 $
  • 222056Z AUTO 00000KT 9999 CLR 13/10 A3032 RMK AO2 SLP263 T01280100 52013

TAF TAF ETIK
Valide du 22 à 22h jusqu'au 24 à 04h UTC


222200Z 2222/2404 10006KT 9999 SKC QNH3030INS
BECMG 2305/2306 08012KT 9999 SKC QNH3025INS
BECMG 2317/2318 VRB06KT 9999 SKC QNH3023INS TX24/2313Z TN11/2303Z
Pas de NOTAMs connus pour ce terrain.



MET'MAP, la Météo Aéronautique d'un coup d'oeil ! - Copyright ORBIFLY Décembre 2007 - Disclaimer

ORBIFLY MET'MAP TEAM :

Programmation & Développement : Alexandra Zaïnal
Conception & Développement : Baudouin d'Aumeries
Co-Programmation & Développement : Marc-Olivier Méhu
Soutien technique & logistique : Manuel Goepfert

Contact : metmap@orbifly.com




SOURCES & CREDITS :

   NOAA